sensor_id;sensor_type;location;lat;lon;timestamp;pressure;altitude;pressure_sealevel;temperature;humidity
79316;BME280;68779;50.036;19.964;2024-03-07T00:06:14;102237.77;;;9.16;57.75
79316;BME280;68779;50.036;19.964;2024-03-07T00:36:29;102230.73;;;9.26;58.33
79316;BME280;68779;50.036;19.964;2024-03-07T01:06:45;102225.82;;;9.45;57.53
79316;BME280;68779;50.036;19.964;2024-03-07T01:37:01;102232.19;;;8.90;58.79
79316;BME280;68779;50.036;19.964;2024-03-07T02:07:18;102221.40;;;8.62;58.78
79316;BME280;68779;50.036;19.964;2024-03-07T02:37:34;102217.30;;;8.83;57.69
79316;BME280;68779;50.036;19.964;2024-03-07T03:07:52;102233.68;;;8.39;58.61
79316;BME280;68779;50.036;19.964;2024-03-07T03:38:09;102221.41;;;8.34;57.78
79316;BME280;68779;50.036;19.964;2024-03-07T04:08:24;102232.97;;;8.22;58.24
79316;BME280;68779;50.036;19.964;2024-03-07T04:38:40;102243.55;;;8.26;58.13
79316;BME280;68779;50.036;19.964;2024-03-07T05:08:58;102273.38;;;7.67;59.63
79316;BME280;68779;50.036;19.964;2024-03-07T05:39:13;102290.36;;;7.85;59.17
79316;BME280;68779;50.036;19.964;2024-03-07T06:09:29;102296.64;;;7.85;58.23
79316;BME280;68779;50.036;19.964;2024-03-07T06:39:45;102319.47;;;7.65;57.86
79316;BME280;68779;50.036;19.964;2024-03-07T07:10:02;102334.27;;;7.44;57.43
79316;BME280;68779;50.036;19.964;2024-03-07T07:40:19;102353.36;;;7.57;56.67
79316;BME280;68779;50.036;19.964;2024-03-07T08:10:37;102361.13;;;7.16;57.60
79316;BME280;68779;50.036;19.964;2024-03-07T08:40:51;102371.90;;;7.49;56.03
79316;BME280;68779;50.036;19.964;2024-03-07T09:11:06;102386.46;;;7.62;55.86
79316;BME280;68779;50.036;19.964;2024-03-07T09:41:23;102399.18;;;7.29;56.71
79316;BME280;68779;50.036;19.964;2024-03-07T10:11:40;102410.37;;;7.38;55.83
79316;BME280;68779;50.036;19.964;2024-03-07T10:42:00;102410.66;;;7.65;55.06
79316;BME280;68779;50.036;19.964;2024-03-07T11:12:21;102403.64;;;7.92;54.84
79316;BME280;68779;50.036;19.964;2024-03-07T11:42:44;102405.66;;;7.73;54.91
79316;BME280;68779;50.036;19.964;2024-03-07T12:13:03;102391.95;;;8.21;53.73
79316;BME280;68779;50.036;19.964;2024-03-07T12:43:19;102403.76;;;8.36;53.05
79316;BME280;68779;50.036;19.964;2024-03-07T13:13:35;102397.58;;;9.06;51.74
79316;BME280;68779;50.036;19.964;2024-03-07T13:43:50;102393.98;;;9.74;50.49
79316;BME280;68779;50.036;19.964;2024-03-07T14:14:18;102385.44;;;9.11;51.02
79316;BME280;68779;50.036;19.964;2024-03-07T14:44:31;102368.17;;;9.41;50.17
79316;BME280;68779;50.036;19.964;2024-03-07T15:14:46;102348.51;;;9.23;49.40
79316;BME280;68779;50.036;19.964;2024-03-07T15:45:00;102365.78;;;9.22;49.74
79316;BME280;68779;50.036;19.964;2024-03-07T16:15:14;102373.03;;;9.22;49.13
79316;BME280;68779;50.036;19.964;2024-03-07T16:45:30;102390.36;;;8.77;47.81
79316;BME280;68779;50.036;19.964;2024-03-07T17:15:49;102405.90;;;9.17;47.57
79316;BME280;68779;50.036;19.964;2024-03-07T17:46:04;102424.72;;;9.06;49.35
79316;BME280;68779;50.036;19.964;2024-03-07T18:33:14;102458.69;;;8.54;50.17
79316;BME280;68779;50.036;19.964;2024-03-07T19:03:30;102457.81;;;7.92;51.11
79316;BME280;68779;50.036;19.964;2024-03-07T19:33:47;102467.84;;;8.06;50.84
79316;BME280;68779;50.036;19.964;2024-03-07T20:04:04;102476.60;;;7.31;52.00
79316;BME280;68779;50.036;19.964;2024-03-07T20:34:19;102466.27;;;7.70;51.44
79316;BME280;68779;50.036;19.964;2024-03-07T21:04:37;102452.56;;;7.89;50.71
79316;BME280;68779;50.036;19.964;2024-03-07T21:34:52;102451.63;;;7.74;51.03
79316;BME280;68779;50.036;19.964;2024-03-07T22:05:08;102444.27;;;7.77;50.47
79316;BME280;68779;50.036;19.964;2024-03-07T22:35:25;102412.41;;;7.82;50.10
79316;BME280;68779;50.036;19.964;2024-03-07T23:05:41;102413.07;;;7.54;51.35
79316;BME280;68779;50.036;19.964;2024-03-07T23:35:57;102402.34;;;7.21;51.01
